Terminal Aerodrome Forecast
Issued by NWS Grand Forks, ND

Home | Current Version | Previous Version | Text Only | Print | Product List | Glossary On
Versions: 1 2 3 4 5 6 7 8 9 10 11 12 13
000
FTUS43 KFGF 052300
TAFFAR
TAF
KFAR 052322Z 0600/0624 15017KT P6SM SCT250
     FM060700 14011KT P6SM BKN030
     FM061600 14012KT P6SM -RA BKN025=

USA.gov is the U.S. government's official web portal to all federal, state and local government web resources and services.